createdAt,value
2018-04-18T00:00:19.483Z,10.40
2018-04-18T00:01:19.768Z,10.33
2018-04-18T00:02:19.969Z,10.42
2018-04-18T00:03:20.209Z,10.29
2018-04-18T00:04:20.451Z,10.25
2018-04-18T00:05:20.693Z,10.17
2018-04-18T00:06:20.936Z,10.07
2018-04-18T00:07:21.179Z,9.99
2018-04-18T00:08:21.420Z,9.83
2018-04-18T00:09:21.663Z,9.78
2018-04-18T00:10:21.903Z,9.69
2018-04-18T00:11:22.147Z,9.69
2018-04-18T00:12:22.389Z,9.90
2018-04-18T00:13:22.633Z,9.90
2018-04-18T00:14:22.876Z,9.89
2018-04-18T00:15:23.119Z,10.02
2018-04-18T00:16:23.357Z,10.27
2018-04-18T00:17:23.599Z,10.48
2018-04-18T00:18:23.842Z,10.63
2018-04-18T00:19:24.084Z,10.56
2018-04-18T00:20:24.327Z,10.51
2018-04-18T00:21:24.569Z,10.40
2018-04-18T00:22:24.812Z,10.26
2018-04-18T00:23:25.056Z,10.05
2018-04-18T00:24:25.333Z,9.99
2018-04-18T00:25:25.540Z,9.96
2018-04-18T00:26:25.782Z,9.86
2018-04-18T00:27:26.024Z,9.87
2018-04-18T00:28:26.265Z,9.69
2018-04-18T00:29:26.508Z,9.61
2018-04-18T00:30:26.748Z,9.65
2018-04-18T00:31:26.990Z,9.58
2018-04-18T00:32:27.232Z,9.50
2018-04-18T00:33:27.473Z,9.43
2018-04-18T00:34:27.713Z,9.35
2018-04-18T00:35:27.955Z,9.32
2018-04-18T00:36:28.197Z,9.28
2018-04-18T00:37:28.439Z,9.11
2018-04-18T00:38:28.683Z,9.05
2018-04-18T00:39:28.923Z,8.94
2018-04-18T00:40:29.164Z,8.98
2018-04-18T00:41:29.407Z,8.91
2018-04-18T00:42:29.647Z,8.92
2018-04-18T00:43:29.890Z,8.91
2018-04-18T00:44:30.132Z,8.71
2018-04-18T00:45:30.373Z,8.76
2018-04-18T00:46:30.612Z,8.71
2018-04-18T00:47:30.855Z,8.71
2018-04-18T00:48:31.101Z,8.66
2018-04-18T00:49:31.332Z,8.68
2018-04-18T00:50:31.575Z,8.66
2018-04-18T00:51:31.817Z,8.66
2018-04-18T00:52:32.058Z,8.61
2018-04-18T00:53:32.301Z,8.58
2018-04-18T00:54:32.542Z,8.59
2018-04-18T00:55:32.786Z,8.65
2018-04-18T00:56:33.026Z,8.74
2018-04-18T00:57:33.268Z,8.84
2018-04-18T00:58:33.510Z,8.91
2018-04-18T00:59:33.752Z,9.04
2018-04-18T01:00:33.993Z,9.10
2018-04-18T01:01:34.238Z,9.17
2018-04-18T01:02:34.474Z,9.18
2018-04-18T01:03:34.715Z,9.28
2018-04-18T01:04:34.958Z,9.24
2018-04-18T01:05:35.198Z,9.20
2018-04-18T01:06:35.441Z,9.29
2018-04-18T01:07:35.683Z,9.18
2018-04-18T01:08:35.924Z,9.17
2018-04-18T01:09:36.170Z,9.18
2018-04-18T01:10:36.411Z,9.20
2018-04-18T01:11:36.657Z,9.11
2018-04-18T01:12:36.899Z,8.99
2018-04-18T01:13:37.147Z,9.11
2018-04-18T01:14:37.386Z,9.05
2018-04-18T01:15:37.628Z,8.99
2018-04-18T01:16:37.868Z,8.96
2018-04-18T01:17:38.111Z,8.96
2018-04-18T01:18:38.354Z,8.87
2018-04-18T01:19:38.595Z,8.83
2018-04-18T01:20:38.838Z,8.77
2018-04-18T01:21:39.079Z,8.79
2018-04-18T01:22:39.320Z,8.73
2018-04-18T01:23:39.566Z,8.61
2018-04-18T01:24:39.809Z,8.65
2018-04-18T01:25:40.051Z,8.52
2018-04-18T01:26:40.295Z,8.55
2018-04-18T01:27:40.538Z,8.58
2018-04-18T01:28:40.777Z,8.50
2018-04-18T01:29:41.021Z,8.55
2018-04-18T01:30:41.262Z,8.62
2018-04-18T01:31:41.503Z,8.61
2018-04-18T01:32:41.747Z,8.50
2018-04-18T01:33:41.990Z,8.65
2018-04-18T01:34:42.231Z,8.68
2018-04-18T01:35:42.474Z,8.62
2018-04-18T01:36:42.716Z,8.61
2018-04-18T01:37:42.959Z,8.52
2018-04-18T01:38:43.202Z,8.47
2018-04-18T01:39:43.444Z,8.45
2018-04-18T01:40:43.687Z,8.36
2018-04-18T01:41:43.930Z,8.37
2018-04-18T01:42:44.174Z,8.26
2018-04-18T01:43:44.414Z,8.33
2018-04-18T01:44:44.658Z,8.11
2018-04-18T01:45:44.899Z,8.12
2018-04-18T01:46:45.146Z,8.10
2018-04-18T01:47:45.388Z,8.08
2018-04-18T01:48:45.626Z,8.15
2018-04-18T01:49:45.875Z,8.11
2018-04-18T01:50:46.113Z,8.08
2018-04-18T01:51:46.354Z,8.15
2018-04-18T01:52:46.597Z,8.10
2018-04-18T01:53:46.838Z,8.08
2018-04-18T01:54:47.081Z,8.00
2018-04-18T01:55:47.324Z,8.07
2018-04-18T01:56:47.567Z,7.92
2018-04-18T01:57:47.809Z,7.92
2018-04-18T01:58:48.053Z,7.90
2018-04-18T01:59:48.295Z,7.86
2018-04-18T02:00:48.536Z,7.89
2018-04-18T02:01:48.781Z,7.92
2018-04-18T02:02:49.025Z,7.93
2018-04-18T02:03:49.266Z,7.95
2018-04-18T02:04:49.510Z,8.05
2018-04-18T02:05:49.752Z,8.07
2018-04-18T02:06:49.995Z,8.01
2018-04-18T02:07:50.235Z,7.97
2018-04-18T02:08:50.478Z,7.95
2018-04-18T02:09:50.720Z,7.86
2018-04-18T02:10:50.964Z,7.90
2018-04-18T02:11:51.207Z,7.80
2018-04-18T02:12:51.446Z,7.79
2018-04-18T02:13:51.686Z,7.77
2018-04-18T02:14:51.926Z,7.75
2018-04-18T02:15:52.172Z,7.68
2018-04-18T02:16:52.409Z,7.79
2018-04-18T02:17:52.649Z,7.85
2018-04-18T02:18:52.890Z,7.82
2018-04-18T02:19:53.133Z,7.77
2018-04-18T02:20:53.374Z,7.85
2018-04-18T02:21:53.613Z,7.79
2018-04-18T02:22:53.856Z,7.75
2018-04-18T02:23:54.096Z,7.80
2018-04-18T02:24:54.336Z,7.72
2018-04-18T02:25:54.575Z,7.95
2018-04-18T02:26:54.815Z,8.00
2018-04-18T02:27:55.053Z,8.07
2018-04-18T02:28:55.297Z,8.05
2018-04-18T02:29:55.535Z,8.11
2018-04-18T02:30:55.777Z,8.10
2018-04-18T02:31:56.015Z,8.25
2018-04-18T02:32:56.255Z,8.43
2018-04-18T02:33:56.495Z,8.53
2018-04-18T02:34:56.734Z,8.70
2018-04-18T02:35:56.972Z,8.71
2018-04-18T02:36:57.212Z,8.79
2018-04-18T02:37:57.456Z,8.74
2018-04-18T02:38:57.696Z,8.74
2018-04-18T02:39:57.932Z,8.68
2018-04-18T02:40:58.171Z,8.66
2018-04-18T02:41:58.411Z,8.56
2018-04-18T02:42:58.652Z,8.48
2018-04-18T02:43:58.892Z,8.45
2018-04-18T02:44:59.131Z,8.48
2018-04-18T02:45:59.367Z,8.40
2018-04-18T02:46:59.605Z,8.36
2018-04-18T02:47:59.846Z,8.29
2018-04-18T02:49:00.086Z,8.30
2018-04-18T02:50:00.334Z,8.26
2018-04-18T02:51:00.565Z,8.25
2018-04-18T02:52:00.804Z,8.11
2018-04-18T02:53:01.042Z,8.08
2018-04-18T02:54:01.292Z,8.08
2018-04-18T02:55:01.522Z,8.25
2018-04-18T02:56:01.761Z,8.28
2018-04-18T02:57:01.999Z,8.34
2018-04-18T02:58:02.243Z,8.33
2018-04-18T02:59:02.481Z,8.41
2018-04-18T03:00:02.719Z,8.33
2018-04-18T03:01:02.960Z,8.34
2018-04-18T03:02:03.199Z,8.25
2018-04-18T03:03:03.438Z,8.19
2018-04-18T03:04:03.681Z,8.20
2018-04-18T03:05:03.917Z,8.16
2018-04-18T03:06:04.155Z,8.10
2018-04-18T03:07:04.395Z,8.10
2018-04-18T03:08:04.638Z,8.08
2018-04-18T03:09:04.876Z,8.08
2018-04-18T03:10:05.115Z,8.08
2018-04-18T03:11:05.357Z,8.05
2018-04-18T03:12:05.598Z,8.10
2018-04-18T03:13:05.836Z,7.95
2018-04-18T03:14:06.074Z,8.02
2018-04-18T03:15:06.323Z,8.01
2018-04-18T03:16:06.554Z,7.98
2018-04-18T03:17:06.794Z,7.87
2018-04-18T03:18:07.030Z,7.82
2018-04-18T03:19:07.271Z,7.85
2018-04-18T03:20:07.512Z,7.82
2018-04-18T03:21:07.751Z,7.82
2018-04-18T03:22:07.992Z,7.71
2018-04-18T03:23:14.795Z,7.80
2018-04-18T03:24:08.613Z,7.77
2018-04-18T03:25:08.852Z,7.69
2018-04-18T03:26:09.089Z,7.67
2018-04-18T03:27:09.332Z,7.63
2018-04-18T03:28:09.571Z,7.53
2018-04-18T03:29:09.811Z,7.48
2018-04-18T03:30:10.056Z,7.40
2018-04-18T03:31:10.297Z,7.35
2018-04-18T03:32:10.533Z,7.31
2018-04-18T03:33:10.771Z,7.37
2018-04-18T03:34:11.009Z,7.31
2018-04-18T03:35:11.253Z,7.24
2018-04-18T03:36:11.492Z,7.25
2018-04-18T03:37:11.733Z,7.17
2018-04-18T03:38:11.971Z,7.13
2018-04-18T03:39:12.212Z,7.13
2018-04-18T03:40:12.450Z,7.21
2018-04-18T03:41:12.690Z,7.30
2018-04-18T03:42:12.929Z,7.39
2018-04-18T03:43:13.170Z,7.50
2018-04-18T03:44:13.412Z,7.50
2018-04-18T03:45:13.649Z,7.55
2018-04-18T03:46:13.885Z,7.50
2018-04-18T03:47:14.128Z,7.61
2018-04-18T03:48:14.364Z,7.57
2018-04-18T03:49:14.603Z,7.58
2018-04-18T03:50:14.843Z,7.60
2018-04-18T03:51:15.082Z,7.58
2018-04-18T03:52:15.317Z,7.60
2018-04-18T03:53:15.554Z,7.52
2018-04-18T03:54:15.802Z,7.52
2018-04-18T03:55:16.036Z,7.49
2018-04-18T03:56:16.274Z,7.58
2018-04-18T03:57:16.516Z,7.50
2018-04-18T03:58:16.753Z,7.39
2018-04-18T03:59:17.005Z,7.32
2018-04-18T04:00:17.226Z,7.28
2018-04-18T04:01:17.468Z,7.30
2018-04-18T04:02:17.699Z,7.28
2018-04-18T04:03:17.935Z,7.17
2018-04-18T04:04:18.176Z,7.25
2018-04-18T04:05:18.414Z,7.28
2018-04-18T04:06:18.657Z,7.27
2018-04-18T04:07:18.897Z,7.37
2018-04-18T04:08:19.137Z,7.28
2018-04-18T04:09:19.375Z,7.35
2018-04-18T04:10:19.614Z,7.37
2018-04-18T04:11:19.858Z,7.27
2018-04-18T04:12:20.097Z,7.37
2018-04-18T04:13:20.343Z,7.45
2018-04-18T04:14:20.576Z,7.43
2018-04-18T04:15:20.813Z,7.40
2018-04-18T04:16:21.056Z,7.52
2018-04-18T04:17:21.291Z,7.53
2018-04-18T04:18:21.529Z,7.50
2018-04-18T04:19:21.771Z,7.55
2018-04-18T04:20:22.009Z,7.64
2018-04-18T04:21:22.237Z,7.74
2018-04-18T04:22:22.477Z,7.79
2018-04-18T04:23:22.716Z,7.72
2018-04-18T04:24:22.952Z,7.72
2018-04-18T04:25:23.192Z,7.69
2018-04-18T04:26:23.428Z,7.72
2018-04-18T04:27:23.673Z,7.79
2018-04-18T04:28:23.911Z,7.82
2018-04-18T04:29:24.153Z,7.55
2018-04-18T04:30:24.388Z,7.53
2018-04-18T04:31:24.628Z,7.42
2018-04-18T04:32:24.872Z,7.37
2018-04-18T04:33:25.106Z,7.32
2018-04-18T04:34:25.355Z,7.34
2018-04-18T04:35:25.583Z,7.28
2018-04-18T04:36:25.821Z,7.31
2018-04-18T04:37:26.059Z,7.31
2018-04-18T04:38:26.299Z,7.31
2018-04-18T04:39:26.539Z,7.30
2018-04-18T04:40:26.777Z,7.31
2018-04-18T04:41:27.015Z,7.27
2018-04-18T04:42:27.254Z,7.24
2018-04-18T04:43:27.494Z,7.25
2018-04-18T04:44:27.736Z,7.20
2018-04-18T04:45:27.970Z,7.34
2018-04-18T04:46:28.208Z,7.37
2018-04-18T04:47:28.450Z,7.32
2018-04-18T04:48:28.689Z,7.30
2018-04-18T04:49:28.930Z,7.48
2018-04-18T04:50:29.166Z,7.45
2018-04-18T04:51:29.404Z,7.43
2018-04-18T04:52:29.640Z,7.46
2018-04-18T04:53:29.884Z,7.45
2018-04-18T04:54:30.126Z,7.46
2018-04-18T04:55:30.364Z,7.42
2018-04-18T04:56:30.703Z,7.31
2018-04-18T04:57:30.845Z,7.31
2018-04-18T04:58:31.084Z,7.32
2018-04-18T04:59:31.323Z,7.37
2018-04-18T05:00:31.564Z,7.30
2018-04-18T05:01:31.806Z,7.34
2018-04-18T05:02:32.081Z,7.46
2018-04-18T05:03:32.285Z,7.39
2018-04-18T05:04:32.526Z,7.48
2018-04-18T05:05:32.767Z,7.46
2018-04-18T05:06:33.007Z,7.64
2018-04-18T05:07:33.248Z,7.60
2018-04-18T05:08:33.487Z,7.67
2018-04-18T05:09:33.729Z,7.74
2018-04-18T05:10:33.971Z,7.82
2018-04-18T05:11:34.211Z,7.83
2018-04-18T05:12:34.449Z,7.89
2018-04-18T05:13:34.690Z,7.89
2018-04-18T05:14:34.929Z,8.02
2018-04-18T05:15:35.169Z,8.10
2018-04-18T05:16:35.408Z,8.10
2018-04-18T05:17:35.651Z,8.16
2018-04-18T05:18:35.932Z,8.18
2018-04-18T05:19:36.175Z,8.28
2018-04-18T05:20:36.417Z,8.11
2018-04-18T05:21:36.658Z,8.23
2018-04-18T05:22:36.973Z,8.23
2018-04-18T05:23:37.263Z,8.30
2018-04-18T05:24:37.506Z,8.38
2018-04-18T05:25:37.743Z,8.37
2018-04-18T05:26:37.979Z,8.48
2018-04-18T05:27:38.217Z,8.52
2018-04-18T05:28:38.463Z,8.58
2018-04-18T05:29:38.751Z,8.79
2018-04-18T05:30:38.994Z,8.84
2018-04-18T05:31:39.232Z,8.81
2018-04-18T05:32:39.473Z,8.98
2018-04-18T05:33:39.713Z,8.94
2018-04-18T05:34:39.953Z,8.91
2018-04-18T05:35:40.193Z,9.13
2018-04-18T05:36:40.429Z,8.98
2018-04-18T05:37:40.669Z,9.04
2018-04-18T05:38:40.954Z,9.20
2018-04-18T05:39:41.193Z,9.21
2018-04-18T05:40:41.488Z,9.20
2018-04-18T05:41:41.713Z,9.26
2018-04-18T05:42:41.947Z,9.20
2018-04-18T05:43:42.191Z,9.24
2018-04-18T05:44:42.433Z,9.42
2018-04-18T05:45:42.674Z,9.50
2018-04-18T05:46:42.915Z,9.53
2018-04-18T05:47:43.155Z,9.50
2018-04-18T05:48:43.396Z,9.57
2018-04-18T05:49:43.638Z,9.51
2018-04-18T05:50:43.877Z,9.60
2018-04-18T05:51:44.118Z,9.60
2018-04-18T05:52:44.358Z,9.74
2018-04-18T05:53:44.640Z,9.75
2018-04-18T05:54:44.843Z,9.89
2018-04-18T05:55:45.083Z,9.83
2018-04-18T05:56:45.324Z,9.96
2018-04-18T05:57:45.567Z,10.01
2018-04-18T05:58:45.806Z,10.05
2018-04-18T05:59:46.051Z,10.14
2018-04-18T06:00:46.294Z,10.18
2018-04-18T06:01:46.530Z,10.25
2018-04-18T06:02:46.771Z,10.41
2018-04-18T06:03:47.012Z,10.38
2018-04-18T06:04:47.284Z,10.55
2018-04-18T06:05:47.501Z,10.55
2018-04-18T06:06:47.738Z,10.59
2018-04-18T06:07:47.982Z,10.67
2018-04-18T06:08:48.220Z,10.61
2018-04-18T06:09:48.464Z,10.74
2018-04-18T06:10:48.709Z,10.71
2018-04-18T06:11:48.947Z,10.74
2018-04-18T06:12:49.190Z,10.84
2018-04-18T06:13:49.430Z,10.92
2018-04-18T06:14:49.673Z,10.92
2018-04-18T06:15:49.928Z,11.04
2018-04-18T06:16:50.160Z,11.06
2018-04-18T06:17:50.404Z,11.10
2018-04-18T06:18:50.645Z,11.19
2018-04-18T06:19:50.888Z,11.32
2018-04-18T06:20:51.134Z,11.27
2018-04-18T06:21:51.372Z,11.36
2018-04-18T06:22:51.616Z,11.51
2018-04-18T06:23:51.858Z,11.49
2018-04-18T06:24:52.097Z,11.52
2018-04-18T06:25:52.341Z,11.60
2018-04-18T06:26:52.582Z,11.65
2018-04-18T06:27:52.821Z,11.60
2018-04-18T06:28:53.063Z,11.80
2018-04-18T06:29:53.313Z,11.91
2018-04-18T06:30:53.556Z,12.02
2018-04-18T06:31:53.799Z,12.01
2018-04-18T06:32:54.039Z,12.17
2018-04-18T06:33:54.280Z,12.49
2018-04-18T06:34:54.532Z,13.11
2018-04-18T06:35:54.764Z,14.09
2018-04-18T06:36:55.005Z,15.32
2018-04-18T06:37:55.247Z,16.49
2018-04-18T06:38:55.493Z,17.46
2018-04-18T06:39:55.741Z,18.33
2018-04-18T06:40:55.985Z,18.92
2018-04-18T06:41:56.226Z,18.91
2018-04-18T06:42:56.473Z,19.39
2018-04-18T06:43:56.715Z,19.65
2018-04-18T06:44:56.954Z,19.65
2018-04-18T06:45:57.295Z,19.87
2018-04-18T06:46:57.441Z,20.13
2018-04-18T06:47:57.684Z,20.35
2018-04-18T06:48:57.927Z,19.80
2018-04-18T06:49:58.170Z,19.73
2018-04-18T06:50:58.418Z,20.02
2018-04-18T06:51:58.665Z,20.24
2018-04-18T06:52:58.909Z,19.81
2018-04-18T06:53:59.165Z,19.13
2018-04-18T06:54:59.397Z,19.36
2018-04-18T06:55:59.643Z,20.10
2018-04-18T06:56:59.890Z,20.55
2018-04-18T06:58:00.135Z,20.87
2018-04-18T06:59:00.383Z,21.43
2018-04-18T07:00:00.632Z,21.84
2018-04-18T07:01:00.877Z,22.33
2018-04-18T07:02:01.124Z,22.76
2018-04-18T07:03:01.372Z,22.97
2018-04-18T07:04:01.618Z,23.25
2018-04-18T07:05:01.868Z,23.40
2018-04-18T07:06:02.118Z,23.38
2018-04-18T07:07:02.357Z,23.63
2018-04-18T07:08:02.607Z,23.68
2018-04-18T07:09:02.853Z,23.93
2018-04-18T07:10:03.104Z,24.10
2018-04-18T07:11:03.346Z,24.32
2018-04-18T07:12:03.602Z,24.40
2018-04-18T07:13:03.840Z,24.52
2018-04-18T07:14:04.089Z,24.67
2018-04-18T07:15:04.337Z,24.67
2018-04-18T07:16:04.586Z,24.52
2018-04-18T07:17:04.827Z,24.39
2018-04-18T07:18:05.081Z,24.05
2018-04-18T07:19:05.330Z,24.20
2018-04-18T07:20:05.579Z,24.34
2018-04-18T07:21:05.826Z,24.68
2018-04-18T07:22:06.077Z,24.87
2018-04-18T07:23:06.325Z,25.00
2018-04-18T07:24:06.575Z,24.95
2018-04-18T07:25:06.822Z,25.10
2018-04-18T07:26:07.069Z,25.17
2018-04-18T07:27:07.322Z,25.15
2018-04-18T07:28:07.568Z,25.23
2018-04-18T07:29:07.818Z,24.88
2018-04-18T07:30:08.070Z,24.98
2018-04-18T07:31:08.315Z,25.28
2018-04-18T07:32:08.564Z,25.38
2018-04-18T07:33:08.814Z,25.54
2018-04-18T07:34:09.067Z,25.39
2018-04-18T07:35:09.307Z,25.14
2018-04-18T07:36:09.564Z,25.02
2018-04-18T07:37:09.815Z,25.30
2018-04-18T07:38:10.065Z,25.75
2018-04-18T07:39:10.322Z,25.57
2018-04-18T07:40:10.614Z,26.07
2018-04-18T07:41:10.814Z,26.40
2018-04-18T07:42:11.065Z,26.57
2018-04-18T07:43:11.317Z,26.82
2018-04-18T07:44:11.566Z,27.06
2018-04-18T07:45:11.817Z,27.02
2018-04-18T07:46:12.070Z,27.06
2018-04-18T07:47:12.325Z,25.88
2018-04-18T07:48:12.577Z,26.25
2018-04-18T07:49:12.831Z,26.23
2018-04-18T07:50:13.083Z,26.40
2018-04-18T07:51:13.330Z,26.62
2018-04-18T07:52:13.586Z,27.00
2018-04-18T07:53:13.839Z,27.43
2018-04-18T07:54:14.091Z,27.79
2018-04-18T07:55:14.343Z,28.30
2018-04-18T07:56:14.594Z,28.25
2018-04-18T07:57:15.140Z,28.34
2018-04-18T07:58:15.224Z,28.40
2018-04-18T07:59:15.479Z,28.51
2018-04-18T08:00:15.733Z,28.19
2018-04-18T08:01:15.988Z,28.48
2018-04-18T08:02:16.239Z,28.56
2018-04-18T08:03:16.489Z,28.95
2018-04-18T08:04:16.744Z,28.98
2018-04-18T08:05:16.995Z,29.24
2018-04-18T08:06:17.252Z,29.46
2018-04-18T08:07:17.505Z,29.45
2018-04-18T08:08:17.757Z,29.33
2018-04-18T08:09:18.010Z,29.26
2018-04-18T08:10:18.266Z,29.19
2018-04-18T08:11:18.526Z,29.43
2018-04-18T08:12:18.773Z,29.78
2018-04-18T08:13:19.028Z,29.24
2018-04-18T08:14:19.282Z,29.49
2018-04-18T08:15:19.573Z,29.39
2018-04-18T08:16:19.791Z,29.42
2018-04-18T08:17:20.044Z,29.53
2018-04-18T08:18:20.298Z,29.57
2018-04-18T08:19:20.553Z,29.46
2018-04-18T08:20:20.808Z,29.45
2018-04-18T08:21:21.065Z,29.39
2018-04-18T08:22:21.321Z,29.82
2018-04-18T08:23:21.575Z,29.82
2018-04-18T08:24:21.829Z,30.29
2018-04-18T08:25:22.083Z,30.32
2018-04-18T08:26:22.345Z,30.20
2018-04-18T08:27:22.595Z,30.54
2018-04-18T08:28:22.848Z,30.54
2018-04-18T08:29:23.108Z,30.47
2018-04-18T08:30:23.361Z,30.73
2018-04-18T08:31:23.618Z,30.53
2018-04-18T08:32:23.875Z,30.65
2018-04-18T08:33:24.129Z,31.12
2018-04-18T08:34:24.383Z,30.94
2018-04-18T08:35:24.642Z,31.21
2018-04-18T08:36:24.891Z,30.69
2018-04-18T08:37:25.152Z,30.89
2018-04-18T08:38:25.406Z,31.36
2018-04-18T08:39:25.660Z,31.35
2018-04-18T08:40:25.916Z,30.84
2018-04-18T08:41:26.173Z,31.16
2018-04-18T08:42:26.427Z,30.60
2018-04-18T08:43:26.686Z,30.91
2018-04-18T08:44:26.946Z,30.82
2018-04-18T08:45:27.199Z,30.94
2018-04-18T08:46:27.455Z,31.43
2018-04-18T08:47:27.711Z,31.57
2018-04-18T08:48:27.967Z,31.73
2018-04-18T08:49:28.224Z,31.93
2018-04-18T08:50:28.484Z,32.07
2018-04-18T08:51:28.741Z,32.62
2018-04-18T08:52:28.999Z,32.82
2018-04-18T08:53:29.255Z,32.97
2018-04-18T08:54:29.509Z,32.70
2018-04-18T08:55:29.769Z,32.08
2018-04-18T08:56:30.027Z,32.08
2018-04-18T08:57:30.284Z,31.84
2018-04-18T08:58:30.542Z,31.76
2018-04-18T08:59:30.799Z,31.80
2018-04-18T09:00:31.059Z,32.08
2018-04-18T09:01:31.317Z,31.85
2018-04-18T09:02:31.573Z,31.29
2018-04-18T09:03:31.843Z,31.68
2018-04-18T09:04:32.333Z,31.43
2018-04-18T09:05:32.347Z,30.69
2018-04-18T09:06:32.603Z,29.83
2018-04-18T09:07:32.864Z,30.13
2018-04-18T09:08:33.119Z,29.78
2018-04-18T09:09:33.379Z,27.84
2018-04-18T09:10:33.636Z,27.25
2018-04-18T09:11:33.894Z,27.24
2018-04-18T09:12:34.151Z,27.74
2018-04-18T09:13:34.407Z,28.14
2018-04-18T09:14:34.667Z,27.79
2018-04-18T09:15:34.921Z,27.77
2018-04-18T09:16:35.177Z,27.85
2018-04-18T09:17:35.440Z,29.12
2018-04-18T09:18:35.693Z,28.49
2018-04-18T09:19:35.951Z,27.27
2018-04-18T09:20:36.211Z,27.69
2018-04-18T09:21:36.468Z,27.32
2018-04-18T09:22:36.723Z,28.90
2018-04-18T09:23:36.981Z,27.75
2018-04-18T09:24:37.237Z,27.88
2018-04-18T09:25:37.495Z,28.59
2018-04-18T09:26:37.755Z,29.92
2018-04-18T09:27:38.012Z,30.82
2018-04-18T09:28:38.271Z,30.94
2018-04-18T09:29:38.528Z,31.56
2018-04-18T09:30:38.784Z,31.34
2018-04-18T09:31:39.041Z,31.17
2018-04-18T09:32:39.298Z,30.34
2018-04-18T09:33:39.556Z,29.12
2018-04-18T09:34:39.815Z,28.95
2018-04-18T09:35:40.071Z,28.00
2018-04-18T09:36:40.327Z,29.08
2018-04-18T09:37:40.590Z,28.55
2018-04-18T09:38:40.852Z,30.01
2018-04-18T09:39:41.152Z,29.92
2018-04-18T09:40:41.356Z,30.53
2018-04-18T09:41:41.614Z,28.96
2018-04-18T09:42:41.872Z,29.06
2018-04-18T09:43:42.130Z,29.58
2018-04-18T09:44:42.387Z,29.63
2018-04-18T09:45:42.644Z,30.35
2018-04-18T09:46:42.902Z,31.34
2018-04-18T09:47:43.160Z,31.91
2018-04-18T09:48:43.417Z,31.43
2018-04-18T09:49:43.677Z,30.91
2018-04-18T09:50:43.933Z,29.79
2018-04-18T09:51:44.192Z,31.14
2018-04-18T09:52:44.450Z,32.28
2018-04-18T09:53:44.709Z,33.15
2018-04-18T09:54:44.971Z,32.65
2018-04-18T09:55:45.226Z,31.41
2018-04-18T09:56:45.484Z,29.94
2018-04-18T09:57:45.742Z,29.27
2018-04-18T09:58:45.999Z,30.58
2018-04-18T09:59:46.257Z,30.98
2018-04-18T10:00:46.515Z,32.07
2018-04-18T10:01:46.775Z,31.92
2018-04-18T10:02:47.032Z,31.73
2018-04-18T10:03:47.287Z,32.13
2018-04-18T10:04:47.545Z,32.65
2018-04-18T10:05:47.804Z,32.62
2018-04-18T10:06:48.064Z,32.96
2018-04-18T10:07:48.322Z,33.42
2018-04-18T10:08:48.579Z,33.60
2018-04-18T10:09:48.837Z,33.69
2018-04-18T10:10:49.096Z,33.39
2018-04-18T10:11:49.355Z,32.37
2018-04-18T10:12:49.614Z,33.29
2018-04-18T10:13:49.876Z,32.35
2018-04-18T10:14:50.139Z,30.26
2018-04-18T10:15:50.392Z,29.94
2018-04-18T10:16:50.652Z,30.29
2018-04-18T10:17:50.910Z,30.34
2018-04-18T10:18:51.168Z,29.85
2018-04-18T10:19:51.429Z,27.75
2018-04-18T10:20:51.694Z,27.81
2018-04-18T10:21:51.948Z,29.71
2018-04-18T10:22:52.246Z,31.29
2018-04-18T10:23:52.472Z,32.21
2018-04-18T10:24:52.726Z,32.25
2018-04-18T10:25:52.986Z,31.50
2018-04-18T10:26:53.243Z,30.13
2018-04-18T10:27:53.502Z,30.34
2018-04-18T10:28:53.765Z,29.16
2018-04-18T10:29:54.026Z,28.02
2018-04-18T10:30:54.281Z,27.87
2018-04-18T10:31:54.541Z,27.77
2018-04-18T10:32:54.799Z,29.61
2018-04-18T10:33:55.059Z,30.69
2018-04-18T10:34:55.321Z,30.16
2018-04-18T10:35:55.575Z,30.32
2018-04-18T10:36:55.836Z,31.53
2018-04-18T10:37:56.093Z,32.03
2018-04-18T10:38:56.353Z,31.23
2018-04-18T10:39:56.612Z,31.20
2018-04-18T10:40:56.869Z,30.31
2018-04-18T10:41:57.129Z,31.14
2018-04-18T10:42:57.385Z,32.19
2018-04-18T10:43:57.646Z,31.61
2018-04-18T10:44:57.903Z,30.95
2018-04-18T10:45:58.165Z,30.83
2018-04-18T10:46:58.424Z,30.58
2018-04-18T10:47:58.678Z,31.07
2018-04-18T10:48:58.942Z,31.43
2018-04-18T10:49:59.197Z,31.19
2018-04-18T10:50:59.459Z,30.82
2018-04-18T10:51:59.716Z,29.55
2018-04-18T10:53:00.059Z,30.26
2018-04-18T10:54:00.245Z,31.29
2018-04-18T10:55:00.511Z,31.51
2018-04-18T10:56:00.763Z,32.01
2018-04-18T10:57:01.026Z,30.84
2018-04-18T10:58:01.281Z,31.86
2018-04-18T10:59:01.541Z,32.47
2018-04-18T11:00:01.803Z,32.07
2018-04-18T11:01:02.061Z,31.66
2018-04-18T11:02:02.321Z,31.95
2018-04-18T11:03:02.581Z,32.11
2018-04-18T11:04:02.837Z,32.82
2018-04-18T11:05:03.100Z,33.65
2018-04-18T11:06:03.353Z,33.57
2018-04-18T11:07:03.614Z,33.16
2018-04-18T11:08:03.878Z,33.23
2018-04-18T11:09:04.130Z,33.00
2018-04-18T11:10:04.390Z,33.21
2018-04-18T11:11:04.646Z,33.19
2018-04-18T11:12:04.907Z,34.00
2018-04-18T11:13:05.167Z,34.15
2018-04-18T11:14:05.425Z,33.51
2018-04-18T11:15:05.685Z,33.14
2018-04-18T11:16:05.950Z,33.66
2018-04-18T11:17:06.205Z,33.23
2018-04-18T11:18:06.466Z,32.18
2018-04-18T11:19:06.737Z,33.04
2018-04-18T11:20:06.988Z,32.93
2018-04-18T11:21:07.248Z,33.61
2018-04-18T11:22:07.510Z,33.88
2018-04-18T11:23:07.770Z,34.37
2018-04-18T11:24:08.031Z,33.68
2018-04-18T11:25:08.290Z,34.56
2018-04-18T11:26:08.551Z,34.99
2018-04-18T11:27:08.812Z,34.96
2018-04-18T11:28:09.073Z,34.94
2018-04-18T11:29:09.333Z,35.16
2018-04-18T11:30:09.591Z,32.18
2018-04-18T11:31:09.852Z,30.88
2018-04-18T11:32:10.113Z,30.46
2018-04-18T11:33:10.373Z,31.26
2018-04-18T11:34:10.634Z,29.23
2018-04-18T11:35:10.895Z,28.66
2018-04-18T11:36:11.157Z,28.55
2018-04-18T11:37:11.420Z,28.46
2018-04-18T11:38:11.680Z,28.46
2018-04-18T11:39:11.940Z,29.70
2018-04-18T11:40:12.201Z,30.83
2018-04-18T11:41:12.463Z,29.52
2018-04-18T11:42:12.721Z,29.79
2018-04-18T11:43:12.987Z,29.26
2018-04-18T11:44:13.240Z,28.56
2018-04-18T11:45:13.500Z,28.78
2018-04-18T11:46:13.759Z,29.87
2018-04-18T11:47:14.019Z,29.82
2018-04-18T11:48:14.276Z,29.18
2018-04-18T11:49:14.536Z,29.83
2018-04-18T11:50:14.792Z,29.78
2018-04-18T11:51:15.060Z,29.80
2018-04-18T11:52:15.322Z,29.08
2018-04-18T11:53:15.585Z,29.98
2018-04-18T11:54:15.898Z,31.85
2018-04-18T11:55:16.174Z,32.50
2018-04-18T11:56:16.435Z,31.43
2018-04-18T11:57:16.729Z,31.95
2018-04-18T11:58:17.040Z,31.69
2018-04-18T11:59:17.305Z,31.50
2018-04-18T12:00:17.563Z,32.40
2018-04-18T12:01:17.821Z,32.66
2018-04-18T12:02:18.116Z,31.92
2018-04-18T12:03:18.343Z,33.23
2018-04-18T12:04:18.595Z,34.31
2018-04-18T12:05:18.957Z,33.93
2018-04-18T12:06:19.265Z,34.78
2018-04-18T12:07:19.521Z,34.85
2018-04-18T12:08:19.779Z,34.72
2018-04-18T12:09:20.039Z,34.88
2018-04-18T12:10:20.303Z,34.64
2018-04-18T12:11:20.559Z,35.03
2018-04-18T12:12:20.818Z,35.02
2018-04-18T12:13:21.078Z,35.04
2018-04-18T12:14:21.337Z,34.91
2018-04-18T12:15:21.597Z,34.40
2018-04-18T12:16:21.855Z,33.65
2018-04-18T12:17:22.115Z,32.41
2018-04-18T12:18:22.377Z,33.04
2018-04-18T12:19:22.637Z,33.29
2018-04-18T12:20:22.895Z,33.97
2018-04-18T12:21:23.155Z,33.37
2018-04-18T12:22:23.415Z,31.12
2018-04-18T12:23:23.675Z,30.17
2018-04-18T12:24:23.936Z,31.14
2018-04-18T12:25:24.200Z,30.47
2018-04-18T12:26:24.456Z,30.32
2018-04-18T12:27:24.716Z,29.97
2018-04-18T12:28:24.980Z,29.64
2018-04-18T12:29:25.227Z,30.47
2018-04-18T12:30:25.489Z,30.46
2018-04-18T12:31:25.746Z,30.16
2018-04-18T12:32:26.006Z,30.45
2018-04-18T12:33:26.264Z,31.41
2018-04-18T12:34:26.529Z,32.65
2018-04-18T12:35:26.786Z,33.22
2018-04-18T12:36:27.044Z,34.25
2018-04-18T12:37:27.302Z,31.68
2018-04-18T12:38:27.560Z,31.36
2018-04-18T12:39:27.820Z,31.16
2018-04-18T12:40:28.077Z,32.63
2018-04-18T12:41:28.336Z,33.22
2018-04-18T12:42:28.595Z,33.06
2018-04-18T12:43:28.854Z,33.68
2018-04-18T12:44:29.112Z,33.90
2018-04-18T12:45:29.372Z,34.02
2018-04-18T12:46:29.630Z,34.35
2018-04-18T12:47:29.889Z,33.66
2018-04-18T12:48:30.146Z,32.60
2018-04-18T12:49:30.405Z,32.35
2018-04-18T12:50:30.663Z,31.75
2018-04-18T12:51:30.923Z,30.80
2018-04-18T12:52:31.184Z,32.10
2018-04-18T12:53:31.440Z,31.91
2018-04-18T12:54:31.698Z,32.19
2018-04-18T12:55:31.957Z,33.34
2018-04-18T12:56:32.215Z,31.31
2018-04-18T12:57:32.532Z,30.83
2018-04-18T12:58:32.732Z,30.15
2018-04-18T12:59:32.993Z,29.46
2018-04-18T13:00:33.251Z,30.01
2018-04-18T13:01:33.509Z,29.90
2018-04-18T13:02:33.771Z,31.16
2018-04-18T13:03:34.027Z,29.53
2018-04-18T13:04:34.286Z,29.19
2018-04-18T13:05:34.544Z,29.73
2018-04-18T13:06:34.802Z,29.33